Butes — A8UR6 — position and weather

sailwx.info

Track history (hours):
 
Tides and Currents Weather Stations Pressure Air Temp Water Temp Dewpoint Dewpoint Depression Visibility Wind Speed Wind Dir Waves Ship Positions

Butes

Last reported at 2014-Oct-29 22:29 UTC. Time now 2014-Oct-31 23:06 UTC.
Position N 53°32' W 003°19'.

Length 90 m; draft 3.4 m.

Type: Cargo ship. MMSI: 636091937.

Date/timePositionNaut miles runAvg speedWind from/ knotsBaromVisibWave heightAir tempDewpointWater temp
2014-Oct-29 22:29N 53°32' W 003°19'8 8.7
2014-Oct-29 21:33N 53°30' W 003°06'5 4.9
2014-Oct-29 20:33N 53°26' W 003°01'0 0.4
2014-Oct-29 19:31N 53°26' W 003°00'0 0.0
2014-Oct-29 18:31N 53°26' W 003°00'0 0.0
2014-Oct-29 17:31N 53°26' W 003°00'0 0.0
2014-Oct-29 16:25N 53°26' W 003°00'0 0.0
2014-Oct-29 15:31N 53°26' W 003°00'0 0.0
2014-Oct-29 14:31N 53°26' W 003°00'0 0.0
2014-Oct-29 13:33N 53°26' W 003°00'0 0.0
2014-Oct-29 12:28N 53°26' W 003°00'0 0.0
2014-Oct-29 11:28N 53°26' W 003°00'0 0.0
2014-Oct-29 10:28N 53°26' W 003°00'0 0.0
2014-Oct-29 09:28N 53°26' W 003°00'0 0.0
2014-Oct-29 08:22N 53°26' W 003°00'0 0.0
2014-Oct-29 07:28N 53°26' W 003°00'0 0.0
2014-Oct-29 06:28N 53°26' W 003°00'0 0.0
2014-Oct-29 05:28N 53°26' W 003°00'0 0.0
2014-Oct-29 04:28N 53°26' W 003°00'0 0.0
2014-Oct-29 03:28N 53°26' W 003°00'0 0.0
2014-Oct-29 02:28N 53°26' W 003°00'0 0.0
2014-Oct-29 01:28N 53°26' W 003°00'0 0.0
2014-Oct-29 00:28N 53°26' W 003°00'0 0.0
2014-Oct-28 23:28N 53°26' W 003°00'0 0.0
2014-Oct-28 22:28N 53°26' W 003°00'0 0.0
2014-Oct-28 21:28N 53°26' W 003°00'0 0.0
2014-Oct-28 20:28N 53°26' W 003°00'0 0.0
2014-Oct-28 19:28N 53°26' W 003°00'0 0.0
2014-Oct-28 18:28N 53°26' W 003°00'0 0.0
2014-Oct-28 17:28N 53°26' W 003°00'0 0.0
2014-Oct-28 16:28N 53°26' W 003°00'0 0.0
2014-Oct-28 15:28N 53°26' W 003°00'0 0.0
2014-Oct-28 14:28N 53°26' W 003°00'0 0.0
2014-Oct-28 13:22N 53°26' W 003°00'0 0.0
2014-Oct-28 12:22N 53°26' W 003°00'0 0.0
2014-Oct-28 11:28N 53°26' W 003°00'0 0.0
2014-Oct-28 10:22N 53°26' W 003°00'0 0.0
2014-Oct-28 09:28N 53°26' W 003°00'0 0.0
2014-Oct-28 08:28N 53°26' W 003°00'0 0.0
2014-Oct-28 07:28N 53°26' W 003°00'0 0.0
2014-Oct-28 06:28N 53°26' W 003°00'0 0.0
2014-Oct-28 05:28N 53°26' W 003°00'0 0.0
2014-Oct-28 04:28N 53°26' W 003°00'0 0.0
2014-Oct-28 03:22N 53°26' W 003°00'0 0.0
2014-Oct-28 02:28N 53°26' W 003°00'0 0.0
2014-Oct-28 01:28N 53°26' W 003°00'0 0.0
2014-Oct-28 00:28N 53°26' W 003°00'0 0.0
2014-Oct-27 23:28N 53°26' W 003°00'0 0.0
2014-Oct-27 22:28N 53°26' W 003°00'0 0.0
2014-Oct-27 21:22N 53°26' W 003°00'0 0.0
2014-Oct-27 20:28N 53°26' W 003°00'0 0.0
2014-Oct-27 19:28N 53°26' W 003°00'0 0.0
2014-Oct-27 18:28N 53°26' W 003°00'0 0.0
2014-Oct-27 17:28N 53°26' W 003°00'0 0.0
2014-Oct-27 16:28N 53°26' W 003°00'0 0.0
2014-Oct-27 15:28N 53°26' W 003°00'0 0.0
2014-Oct-27 14:28N 53°26' W 003°00'0 0.1
2014-Oct-27 13:28N 53°26' W 003°00'1 1.3
2014-Oct-27 12:28N 53°27' W 003°01'0 0.0
2014-Oct-27 11:28N 53°27' W 003°01'0 0.0
2014-Oct-27 10:33N 53°27' W 003°01'1 1.1
2014-Oct-27 09:33N 53°28' W 003°03'10 9.6
2014-Oct-27 08:31N 53°31' W 003°19'  
2014-Oct-23 16:33N 47°55' W 006°40'  
Track history (hours):
 
Tides and Currents Weather Stations Pressure Air Temp Water Temp Dewpoint Dewpoint Depression Visibility Wind Speed Wind Dir Waves Ship Positions

Butes

Last reported at 2014-Oct-29 22:29 UTC. Time now 2014-Oct-31 23:06 UTC.
Position N 53°32' W 003°19'.

Length 90 m; draft 3.4 m.

Type: Cargo ship. MMSI: 636091937.

Date/timePositionNaut miles runAvg speedWind from/ knotsBaromVisibWave heightAir tempDewpointWater temp
2014-Oct-29 22:29N 53°32' W 003°19'8 8.7
2014-Oct-29 21:33N 53°30' W 003°06'5 4.9
2014-Oct-29 20:33N 53°26' W 003°01'0 0.4
2014-Oct-29 19:31N 53°26' W 003°00'0 0.0
2014-Oct-29 18:31N 53°26' W 003°00'0 0.0
2014-Oct-29 17:31N 53°26' W 003°00'0 0.0
2014-Oct-29 16:25N 53°26' W 003°00'0 0.0
2014-Oct-29 15:31N 53°26' W 003°00'0 0.0
2014-Oct-29 14:31N 53°26' W 003°00'0 0.0
2014-Oct-29 13:33N 53°26' W 003°00'0 0.0
2014-Oct-29 12:28N 53°26' W 003°00'0 0.0
2014-Oct-29 11:28N 53°26' W 003°00'0 0.0
2014-Oct-29 10:28N 53°26' W 003°00'0 0.0
2014-Oct-29 09:28N 53°26' W 003°00'0 0.0
2014-Oct-29 08:22N 53°26' W 003°00'0 0.0
2014-Oct-29 07:28N 53°26' W 003°00'0 0.0
2014-Oct-29 06:28N 53°26' W 003°00'0 0.0
2014-Oct-29 05:28N 53°26' W 003°00'0 0.0
2014-Oct-29 04:28N 53°26' W 003°00'0 0.0
2014-Oct-29 03:28N 53°26' W 003°00'0 0.0
2014-Oct-29 02:28N 53°26' W 003°00'0 0.0
2014-Oct-29 01:28N 53°26' W 003°00'0 0.0
2014-Oct-29 00:28N 53°26' W 003°00'0 0.0
2014-Oct-28 23:28N 53°26' W 003°00'0 0.0
2014-Oct-28 22:28N 53°26' W 003°00'0 0.0
2014-Oct-28 21:28N 53°26' W 003°00'0 0.0
2014-Oct-28 20:28N 53°26' W 003°00'0 0.0
2014-Oct-28 19:28N 53°26' W 003°00'0 0.0
2014-Oct-28 18:28N 53°26' W 003°00'0 0.0
2014-Oct-28 17:28N 53°26' W 003°00'0 0.0
2014-Oct-28 16:28N 53°26' W 003°00'0 0.0
2014-Oct-28 15:28N 53°26' W 003°00'0 0.0
2014-Oct-28 14:28N 53°26' W 003°00'0 0.0
2014-Oct-28 13:22N 53°26' W 003°00'0 0.0
2014-Oct-28 12:22N 53°26' W 003°00'0 0.0
2014-Oct-28 11:28N 53°26' W 003°00'0 0.0
2014-Oct-28 10:22N 53°26' W 003°00'0 0.0
2014-Oct-28 09:28N 53°26' W 003°00'0 0.0
2014-Oct-28 08:28N 53°26' W 003°00'0 0.0
2014-Oct-28 07:28N 53°26' W 003°00'0 0.0
2014-Oct-28 06:28N 53°26' W 003°00'0 0.0
2014-Oct-28 05:28N 53°26' W 003°00'0 0.0
2014-Oct-28 04:28N 53°26' W 003°00'0 0.0
2014-Oct-28 03:22N 53°26' W 003°00'0 0.0
2014-Oct-28 02:28N 53°26' W 003°00'0 0.0
2014-Oct-28 01:28N 53°26' W 003°00'0 0.0
2014-Oct-28 00:28N 53°26' W 003°00'0 0.0
2014-Oct-27 23:28N 53°26' W 003°00'0 0.0
2014-Oct-27 22:28N 53°26' W 003°00'0 0.0
2014-Oct-27 21:22N 53°26' W 003°00'0 0.0
2014-Oct-27 20:28N 53°26' W 003°00'0 0.0
2014-Oct-27 19:28N 53°26' W 003°00'0 0.0
2014-Oct-27 18:28N 53°26' W 003°00'0 0.0
2014-Oct-27 17:28N 53°26' W 003°00'0 0.0
2014-Oct-27 16:28N 53°26' W 003°00'0 0.0
2014-Oct-27 15:28N 53°26' W 003°00'0 0.0
2014-Oct-27 14:28N 53°26' W 003°00'0 0.1
2014-Oct-27 13:28N 53°26' W 003°00'1 1.3
2014-Oct-27 12:28N 53°27' W 003°01'0 0.0
2014-Oct-27 11:28N 53°27' W 003°01'0 0.0
2014-Oct-27 10:33N 53°27' W 003°01'1 1.1
2014-Oct-27 09:33N 53°28' W 003°03'10 9.6
2014-Oct-27 08:31N 53°31' W 003°19'  
2014-Oct-23 16:33N 47°55' W 006°40'  

Dump ship's entire track history